Terminal Aerodrome Forecast
Issued by NWS

Home | Current Version | Previous Version | Text Only | Print | Product List | Glossary Off
Versions: 1 2 3 4 5 6 7 8 9 10 11 12 13 14 15 16 17 18

000
FTUS43 KIWX 240700 AAA
TAFSBN
TAF AMD
KSBN 240730Z 2408/2506 22012G18KT 6SM -RA BR OVC004
     FM240900 20012KT 3SM -RA BR OVC006
      TEMPO 2412/2415 2SM RA BR OVC005
     FM241600 23020G35KT P6SM -SHRA OVC008
     FM242000 25022G37KT 6SM -SHSN OVC010
     FM250100 24020G31KT 4SM -SHSN OVC015=

USA.gov is the U.S. government's official web portal to all federal, state and local government web resources and services.